createdAt,value
2023-01-23T00:02:09.567Z,99186.50
2023-01-23T00:04:38.713Z,99195.91
2023-01-23T00:07:07.761Z,99190.34
2023-01-23T00:09:38.245Z,99195.50
2023-01-23T00:12:07.752Z,99193.38
2023-01-23T00:14:36.883Z,99183.81
2023-01-23T00:17:05.948Z,99186.09
2023-01-23T00:19:35.077Z,99188.16
2023-01-23T00:22:04.354Z,99186.97
2023-01-23T00:24:33.524Z,99184.56
2023-01-23T00:27:03.969Z,99175.63
2023-01-23T00:29:33.166Z,99183.28
2023-01-23T00:32:02.457Z,99170.63
2023-01-23T00:34:32.175Z,99181.66
2023-01-23T00:37:01.221Z,99172.97
2023-01-23T00:39:30.526Z,99167.28
2023-01-23T00:41:59.627Z,99159.69
2023-01-23T00:44:30.957Z,99163.84
2023-01-23T00:47:00.582Z,99162.09
2023-01-23T00:49:30.555Z,99169.44
2023-01-23T00:52:01.219Z,99152.34
2023-01-23T00:54:30.272Z,99157.34
2023-01-23T00:56:59.507Z,99159.13
2023-01-23T00:59:30.264Z,99148.56
2023-01-23T01:01:59.530Z,99145.50
2023-01-23T01:04:28.832Z,99151.53
2023-01-23T01:06:58.015Z,99144.22
2023-01-23T01:09:27.186Z,99138.44
2023-01-23T01:11:56.283Z,99137.25
2023-01-23T01:14:25.347Z,99120.72
2023-01-23T01:16:55.823Z,99121.09
2023-01-23T01:19:24.890Z,99107.84
2023-01-23T01:21:54.088Z,99102.97
2023-01-23T01:24:23.190Z,99092.28
2023-01-23T01:26:52.283Z,99085.91
2023-01-23T01:29:21.460Z,99072.06
2023-01-23T01:31:50.631Z,99064.47
2023-01-23T01:34:23.760Z,99058.97
2023-01-23T01:36:53.590Z,99055.53
2023-01-23T01:39:22.759Z,99042.09
2023-01-23T01:41:51.852Z,99043.91
2023-01-23T01:44:23.480Z,99044.84
2023-01-23T01:46:53.336Z,99043.63
2023-01-23T01:49:30.102Z,99036.50
2023-01-23T01:52:03.956Z,99041.88
2023-01-23T01:54:37.925Z,99033.25
2023-01-23T01:57:13.058Z,99040.56
2023-01-23T01:59:49.118Z,99051.06
2023-01-23T02:02:24.024Z,99051.41
2023-01-23T02:05:00.512Z,99067.13
2023-01-23T02:07:36.672Z,99056.94
2023-01-23T02:10:08.657Z,99042.00
2023-01-23T02:12:42.310Z,99048.16
2023-01-23T02:15:11.725Z,99037.13
2023-01-23T02:17:43.114Z,99037.13
2023-01-23T02:20:20.521Z,99038.94
2023-01-23T02:22:58.825Z,99052.75
2023-01-23T02:25:40.154Z,99046.41
2023-01-23T02:28:11.197Z,99033.88
2023-01-23T02:30:43.695Z,99022.84
2023-01-23T02:33:46.149Z,99022.22
2023-01-23T02:36:16.558Z,99018.66
2023-01-23T02:38:54.926Z,99037.31
2023-01-23T02:41:30.769Z,99035.22
2023-01-23T02:44:08.724Z,99032.63
2023-01-23T02:46:38.863Z,99036.34
2023-01-23T02:49:08.234Z,99034.88
2023-01-23T02:51:37.814Z,99032.59
2023-01-23T02:54:07.345Z,99034.22
2023-01-23T02:56:36.445Z,99034.72
2023-01-23T02:59:24.590Z,99032.94
2023-01-23T03:01:53.895Z,99037.16
2023-01-23T03:04:23.835Z,99032.59
2023-01-23T03:06:52.914Z,99023.50
2023-01-23T03:09:22.701Z,99034.22
2023-01-23T03:11:52.320Z,99032.44
2023-01-23T03:14:25.083Z,99032.78
2023-01-23T03:16:55.353Z,99027.25
2023-01-23T03:19:31.611Z,99015.53
2023-01-23T03:22:00.995Z,99012.44
2023-01-23T03:24:30.125Z,99007.06
2023-01-23T03:26:59.621Z,98999.75
2023-01-23T03:29:49.879Z,98992.88
2023-01-23T03:32:19.174Z,98990.94
2023-01-23T03:34:48.393Z,98986.44
2023-01-23T03:37:19.684Z,98979.53
2023-01-23T03:40:06.995Z,98996.66
2023-01-23T03:42:36.722Z,98980.78
2023-01-23T03:45:10.347Z,98977.44
2023-01-23T03:47:39.512Z,98969.47
2023-01-23T03:50:11.162Z,98969.31
2023-01-23T03:52:42.518Z,98962.53
2023-01-23T03:55:12.630Z,98964.16
2023-01-23T03:57:42.552Z,98972.63
2023-01-23T04:00:16.915Z,98964.69
2023-01-23T04:03:09.607Z,98959.41
2023-01-23T04:05:40.810Z,98961.84
2023-01-23T04:08:09.930Z,98952.97
2023-01-23T04:10:39.747Z,98956.41
2023-01-23T04:13:15.861Z,98959.44
2023-01-23T04:15:46.619Z,98962.66
2023-01-23T04:18:18.334Z,98951.47
2023-01-23T04:20:47.394Z,98960.69
2023-01-23T04:23:16.584Z,98964.88
2023-01-23T04:25:45.691Z,98957.81
2023-01-23T04:28:16.453Z,98956.88
2023-01-23T04:30:48.585Z,98963.38
2023-01-23T04:33:23.953Z,98963.59
2023-01-23T04:35:57.271Z,98969.38
2023-01-23T04:38:30.613Z,98959.66
2023-01-23T04:41:07.071Z,98953.91
2023-01-23T04:43:39.761Z,98964.19
2023-01-23T04:46:13.895Z,98974.69
2023-01-23T04:48:57.955Z,98967.97
2023-01-23T04:51:28.512Z,98974.69
2023-01-23T04:53:58.337Z,98969.59
2023-01-23T04:56:27.481Z,98972.38
2023-01-23T04:58:57.875Z,98971.25
2023-01-23T05:01:28.915Z,98963.81
2023-01-23T05:04:03.205Z,98959.19
2023-01-23T05:06:32.667Z,98959.41
2023-01-23T05:09:02.150Z,98958.81
2023-01-23T05:11:43.836Z,98948.53
2023-01-23T05:14:15.050Z,98951.75
2023-01-23T05:16:46.743Z,98947.84
2023-01-23T05:19:18.511Z,98931.41
2023-01-23T05:21:48.082Z,98934.63
2023-01-23T05:24:20.124Z,98926.84
2023-01-23T05:26:49.314Z,98926.72
2023-01-23T05:29:20.623Z,98912.59
2023-01-23T05:32:13.831Z,98914.44
2023-01-23T05:34:46.072Z,98911.22
2023-01-23T05:37:27.770Z,98912.81
2023-01-23T05:40:01.458Z,98902.19
2023-01-23T05:42:50.900Z,98912.13
2023-01-23T05:45:46.249Z,98931.31
2023-01-23T05:48:27.964Z,98935.25
2023-01-23T05:50:58.064Z,98936.38
2023-01-23T05:53:28.070Z,98935.09
2023-01-23T05:55:57.523Z,98948.19
2023-01-23T05:58:26.929Z,98928.28
2023-01-23T06:00:58.896Z,98940.59
2023-01-23T06:03:49.852Z,98940.09
2023-01-23T06:06:39.238Z,98951.66
2023-01-23T06:09:08.376Z,98943.31
2023-01-23T06:11:38.712Z,98957.22
2023-01-23T06:14:09.707Z,98969.94
2023-01-23T06:16:39.384Z,98972.72
2023-01-23T06:19:11.423Z,98975.78
2023-01-23T06:21:40.654Z,98976.41
2023-01-23T06:24:10.324Z,98980.34
2023-01-23T06:26:39.372Z,98975.69
2023-01-23T06:29:09.209Z,98973.28
2023-01-23T06:31:38.344Z,98978.50
2023-01-23T06:34:08.520Z,98968.69
2023-01-23T06:36:46.261Z,98976.19
2023-01-23T06:39:16.217Z,98965.34
2023-01-23T06:41:45.756Z,98977.28
2023-01-23T06:44:21.136Z,98981.47
2023-01-23T06:46:50.313Z,98985.34
2023-01-23T06:49:19.421Z,98992.19
2023-01-23T06:51:50.949Z,98993.59
2023-01-23T06:54:21.177Z,98989.75
2023-01-23T06:56:51.769Z,98988.66
2023-01-23T06:59:23.335Z,98983.16
2023-01-23T07:01:52.622Z,98980.94
2023-01-23T07:04:36.165Z,98992.72
2023-01-23T07:07:07.089Z,98979.44
2023-01-23T07:09:36.563Z,98986.19
2023-01-23T07:12:11.427Z,98985.00
2023-01-23T07:14:41.447Z,98995.63
2023-01-23T07:17:12.676Z,98988.44
2023-01-23T07:19:42.522Z,98978.38
2023-01-23T07:22:19.309Z,98973.16
2023-01-23T07:24:48.927Z,98959.16
2023-01-23T07:27:18.326Z,98975.78
2023-01-23T07:29:47.419Z,98979.47
2023-01-23T07:32:16.458Z,98989.69
2023-01-23T07:34:45.485Z,98992.56
2023-01-23T07:37:15.997Z,98992.13
2023-01-23T07:39:45.557Z,98986.66
2023-01-23T07:42:14.613Z,98985.28
2023-01-23T07:44:44.308Z,98996.50
2023-01-23T07:47:13.417Z,99001.97
2023-01-23T07:49:42.451Z,99014.75
2023-01-23T07:52:11.777Z,99019.94
2023-01-23T07:54:42.297Z,99027.41
2023-01-23T07:57:11.545Z,99024.53
2023-01-23T07:59:40.639Z,99038.09
2023-01-23T08:02:11.295Z,99039.78
2023-01-23T08:04:40.634Z,99031.16
2023-01-23T08:07:09.783Z,99045.09
2023-01-23T08:09:38.805Z,99031.16
2023-01-23T08:12:09.497Z,99040.94
2023-01-23T08:14:39.310Z,99046.16
2023-01-23T08:17:08.624Z,99054.16
2023-01-23T08:19:37.661Z,99054.88
2023-01-23T08:22:07.136Z,99046.00
2023-01-23T08:24:36.259Z,99039.25
2023-01-23T08:27:05.841Z,99055.97
2023-01-23T08:29:36.384Z,99050.47
2023-01-23T08:32:05.960Z,99054.53
2023-01-23T08:34:35.003Z,99054.78
2023-01-23T08:37:04.024Z,99055.88
2023-01-23T08:39:33.224Z,99056.69
2023-01-23T08:42:02.258Z,99056.69
2023-01-23T08:44:34.280Z,99068.16
2023-01-23T08:47:04.919Z,99053.06
2023-01-23T08:49:33.984Z,99060.69
2023-01-23T08:52:05.397Z,99059.94
2023-01-23T08:54:34.685Z,99049.59
2023-01-23T08:57:03.771Z,99060.91
2023-01-23T08:59:33.009Z,99045.09
2023-01-23T09:02:02.669Z,99055.44
2023-01-23T09:04:33.126Z,99060.66
2023-01-23T09:07:02.205Z,99071.34
2023-01-23T09:09:31.391Z,99071.19
2023-01-23T09:12:00.516Z,99078.28
2023-01-23T09:14:29.610Z,99079.03
2023-01-23T09:16:58.777Z,99079.25
2023-01-23T09:19:27.849Z,99079.09
2023-01-23T09:21:58.241Z,99079.75
2023-01-23T09:24:27.433Z,99077.31
2023-01-23T09:26:56.496Z,99079.09
2023-01-23T09:29:25.842Z,99071.91
2023-01-23T09:31:54.978Z,99081.44
2023-01-23T09:34:24.052Z,99078.22
2023-01-23T09:36:53.973Z,99078.22
2023-01-23T09:39:24.581Z,99083.75
2023-01-23T09:41:53.892Z,99080.00
2023-01-23T09:44:31.624Z,99083.31
2023-01-23T09:47:08.103Z,99068.56
2023-01-23T09:49:47.541Z,99081.78
2023-01-23T09:52:21.254Z,99083.22
2023-01-23T09:54:56.826Z,99087.75
2023-01-23T09:57:31.219Z,99074.44
2023-01-23T10:00:14.227Z,99076.75
2023-01-23T10:02:45.475Z,99080.53
2023-01-23T10:05:16.804Z,99084.84
2023-01-23T10:08:06.860Z,99075.13
2023-01-23T10:11:00.458Z,99076.22
2023-01-23T10:13:59.721Z,99081.34
2023-01-23T10:17:04.090Z,99082.78
2023-01-23T10:19:49.711Z,99082.19
2023-01-23T10:22:36.234Z,99084.44
2023-01-23T10:25:17.528Z,99070.84
2023-01-23T10:27:50.926Z,99073.81
2023-01-23T10:30:28.412Z,99077.16
2023-01-23T10:33:10.826Z,99072.44
2023-01-23T10:35:50.645Z,99076.59
2023-01-23T10:38:32.209Z,99077.84
2023-01-23T10:41:21.200Z,99072.06
2023-01-23T10:43:55.212Z,99075.94
2023-01-23T10:46:32.469Z,99075.59
2023-01-23T10:49:02.391Z,99080.56
2023-01-23T10:51:36.360Z,99075.13
2023-01-23T10:54:30.328Z,99082.91
2023-01-23T10:57:03.110Z,99067.06
2023-01-23T10:59:41.357Z,99062.47
2023-01-23T11:02:29.541Z,99067.94
2023-01-23T11:04:59.767Z,99059.22
2023-01-23T11:07:31.903Z,99057.84
2023-01-23T11:10:05.049Z,99061.22
2023-01-23T11:12:36.698Z,99062.13
2023-01-23T11:15:24.129Z,99047.91
2023-01-23T11:17:55.469Z,99056.88
2023-01-23T11:20:31.947Z,99061.41
2023-01-23T11:23:14.246Z,99070.50
2023-01-23T11:25:45.707Z,99062.59
2023-01-23T11:28:27.060Z,99065.09
2023-01-23T11:31:13.706Z,99056.81
2023-01-23T11:33:52.381Z,99055.53
2023-01-23T11:36:39.465Z,99066.25
2023-01-23T11:39:23.064Z,99061.56
2023-01-23T11:41:52.716Z,99063.19
2023-01-23T11:44:24.557Z,99060.97
2023-01-23T11:47:31.473Z,99045.44
2023-01-23T11:50:31.371Z,99048.59
2023-01-23T11:53:07.055Z,99046.28
2023-01-23T11:56:32.695Z,99041.59
2023-01-23T11:59:37.695Z,99028.09
2023-01-23T12:02:54.215Z,99027.13
2023-01-23T12:08:54.327Z,99033.38
2023-01-23T12:11:24.568Z,99031.59
2023-01-23T12:14:05.312Z,99024.25
2023-01-23T12:16:58.691Z,99031.63
2023-01-23T12:19:55.936Z,99024.50
2023-01-23T12:22:37.278Z,99016.09
2023-01-23T12:25:21.139Z,99021.69
2023-01-23T12:27:58.016Z,99021.59
2023-01-23T12:31:05.765Z,99023.19
2023-01-23T12:34:06.572Z,99027.59
2023-01-23T12:37:22.294Z,99027.03
2023-01-23T12:40:13.724Z,99034.22
2023-01-23T12:42:51.650Z,99043.78
2023-01-23T12:45:34.089Z,99036.81
2023-01-23T12:48:12.618Z,99050.84
2023-01-23T12:50:48.644Z,99050.31
2023-01-23T12:53:22.164Z,99057.28
2023-01-23T12:56:00.342Z,99056.72
2023-01-23T12:58:35.261Z,99058.31
2023-01-23T13:01:36.662Z,99066.84
2023-01-23T13:04:39.815Z,99069.19
2023-01-23T13:07:27.522Z,99075.53
2023-01-23T13:10:48.258Z,99075.53
2023-01-23T13:13:19.007Z,99072.28
2023-01-23T13:16:05.421Z,99068.16
2023-01-23T13:18:55.903Z,99079.84
2023-01-23T13:21:42.761Z,99080.03
2023-01-23T13:25:04.053Z,99069.31
2023-01-23T13:27:47.377Z,99073.28
2023-01-23T13:30:44.861Z,99070.00
2023-01-23T13:33:58.774Z,99073.16
2023-01-23T13:36:39.445Z,99081.06
2023-01-23T13:39:31.407Z,99073.19
2023-01-23T13:42:36.083Z,99081.16
2023-01-23T13:45:31.166Z,99085.28
2023-01-23T14:20:39.824Z,99096.03
2023-01-23T14:23:29.243Z,99103.16
2023-01-23T14:25:59.059Z,99107.56
2023-01-23T14:28:28.575Z,99099.97
2023-01-23T14:31:01.931Z,99105.91
2023-01-23T14:33:42.667Z,99102.94
2023-01-23T14:36:17.893Z,99099.00
2023-01-23T14:38:50.228Z,99117.59
2023-01-23T14:41:27.899Z,99110.31
2023-01-23T14:44:01.142Z,99116.16
2023-01-23T14:46:40.231Z,99112.47
2023-01-23T14:49:12.110Z,99117.88
2023-01-23T14:51:41.142Z,99122.06
2023-01-23T14:54:22.991Z,99129.72
2023-01-23T14:56:54.169Z,99118.88
2023-01-23T14:59:31.127Z,99123.16
2023-01-23T15:02:10.146Z,99110.59
2023-01-23T15:05:28.923Z,99123.34
2023-01-23T15:08:03.240Z,99127.31
2023-01-23T15:10:36.674Z,99125.88
2023-01-23T15:13:10.086Z,99127.22
2023-01-23T15:15:45.375Z,99145.53
2023-01-23T15:18:23.688Z,99152.31
2023-01-23T15:20:59.355Z,99147.00
2023-01-23T15:23:32.302Z,99140.41
2023-01-23T15:26:26.445Z,99148.31
2023-01-23T15:29:00.374Z,99160.94
2023-01-23T15:31:33.853Z,99154.00
2023-01-23T15:34:22.010Z,99160.28
2023-01-23T15:37:02.416Z,99156.25
2023-01-23T15:39:35.933Z,99168.66
2023-01-23T15:42:24.819Z,99172.59
2023-01-23T15:44:53.940Z,99184.47
2023-01-23T15:47:23.299Z,99182.84
2023-01-23T15:49:52.348Z,99179.81
2023-01-23T15:52:27.388Z,99187.59
2023-01-23T15:55:00.834Z,99193.13
2023-01-23T15:57:30.181Z,99178.72
2023-01-23T16:00:00.344Z,99182.47
2023-01-23T16:02:31.615Z,99192.09
2023-01-23T16:05:02.316Z,99198.84
2023-01-23T16:07:35.683Z,99196.16
2023-01-23T16:10:09.157Z,99193.72
2023-01-23T16:12:40.198Z,99188.75
2023-01-23T16:15:16.828Z,99202.44
2023-01-23T16:17:55.396Z,99203.84
2023-01-23T16:20:29.175Z,99207.47
2023-01-23T16:23:14.129Z,99207.81
2023-01-23T16:25:46.186Z,99211.06
2023-01-23T16:28:17.225Z,99209.78
2023-01-23T16:30:48.844Z,99216.06
2023-01-23T16:33:19.730Z,99214.78
2023-01-23T16:35:50.894Z,99215.25
2023-01-23T16:38:25.732Z,99219.19
2023-01-23T16:40:57.465Z,99224.16
2023-01-23T16:43:27.833Z,99221.28
2023-01-23T16:45:57.832Z,99226.69
2023-01-23T16:48:28.863Z,99227.03
2023-01-23T16:51:03.891Z,99229.91
2023-01-23T16:53:39.173Z,99235.38
2023-01-23T16:56:22.173Z,99231.34
2023-01-23T16:58:52.544Z,99240.16
2023-01-23T17:01:24.172Z,99247.13
2023-01-23T17:04:03.945Z,99254.22
2023-01-23T17:06:33.452Z,99263.72
2023-01-23T17:09:10.338Z,99264.06
2023-01-23T17:11:44.713Z,99274.50
2023-01-23T17:14:19.004Z,99267.78
2023-01-23T17:16:51.581Z,99255.63
2023-01-23T17:19:29.676Z,99263.91
2023-01-23T17:22:00.187Z,99258.09
2023-01-23T17:24:31.077Z,99259.72
2023-01-23T17:27:00.150Z,99260.31
2023-01-23T17:29:29.397Z,99256.94
2023-01-23T17:31:58.452Z,99258.75
2023-01-23T17:34:49.359Z,99262.00
2023-01-23T17:37:22.135Z,99267.56
2023-01-23T17:39:53.037Z,99277.75
2023-01-23T17:42:22.782Z,99272.44
2023-01-23T17:44:52.278Z,99270.34
2023-01-23T17:47:24.066Z,99270.97
2023-01-23T17:49:54.737Z,99275.72
2023-01-23T17:52:25.128Z,99282.47
2023-01-23T17:54:55.775Z,99276.91
2023-01-23T17:57:24.834Z,99279.91
2023-01-23T17:59:56.606Z,99281.53
2023-01-23T18:02:29.865Z,99287.81
2023-01-23T18:04:59.792Z,99286.88
2023-01-23T18:07:29.145Z,99286.88
2023-01-23T18:10:00.436Z,99289.91
2023-01-23T18:12:39.495Z,99293.03
2023-01-23T18:15:16.090Z,99298.25
2023-01-23T18:17:55.989Z,99303.41
2023-01-23T18:20:26.560Z,99307.75
2023-01-23T18:22:56.920Z,99320.88
2023-01-23T18:25:29.649Z,99321.69
2023-01-23T18:28:05.037Z,99324.03
2023-01-23T18:30:52.246Z,99323.00
2023-01-23T18:34:06.209Z,99331.00
2023-01-23T18:36:54.609Z,99324.97
2023-01-23T18:39:44.105Z,99323.56
2023-01-23T18:42:25.713Z,99322.66
2023-01-23T18:44:59.867Z,99322.75
2023-01-23T18:47:30.018Z,99329.84
2023-01-23T18:50:00.881Z,99329.38
2023-01-23T18:52:45.181Z,99321.03
2023-01-23T18:55:31.445Z,99318.50
2023-01-23T18:58:34.773Z,99322.44
2023-01-23T19:01:19.736Z,99325.69
2023-01-23T19:03:51.262Z,99332.16
2023-01-23T19:06:24.087Z,99339.34
2023-01-23T19:08:56.528Z,99335.41
2023-01-23T19:11:37.489Z,99338.53
2023-01-23T19:14:21.006Z,99346.53
2023-01-23T19:16:59.967Z,99343.28
2023-01-23T19:19:41.082Z,99345.59
2023-01-23T19:22:12.829Z,99352.78
2023-01-23T19:24:44.696Z,99352.09
2023-01-23T19:27:22.984Z,99348.16
2023-01-23T19:29:54.066Z,99349.19
2023-01-23T19:32:24.086Z,99349.09
2023-01-23T19:34:56.523Z,99352.56
2023-01-23T19:37:28.509Z,99342.13
2023-01-23T19:39:59.720Z,99346.31
2023-01-23T19:42:31.908Z,99356.50
2023-01-23T19:45:12.970Z,99357.66
2023-01-23T19:47:42.940Z,99365.91
2023-01-23T19:50:18.226Z,99366.72
2023-01-23T19:52:52.502Z,99367.88
2023-01-23T19:55:27.806Z,99369.03
2023-01-23T19:58:02.050Z,99369.03
2023-01-23T20:00:36.480Z,99363.47
2023-01-23T20:03:06.490Z,99373.78
2023-01-23T20:05:36.560Z,99373.31
2023-01-23T20:08:06.703Z,99379.00
2023-01-23T20:10:41.289Z,99381.44
2023-01-23T20:13:12.547Z,99384.34
2023-01-23T20:15:43.298Z,99384.22
2023-01-23T20:18:12.844Z,99384.78
2023-01-23T20:20:42.090Z,99387.91
2023-01-23T20:23:11.260Z,99388.03
2023-01-23T20:25:40.559Z,99389.41
2023-01-23T20:28:11.200Z,99382.59
2023-01-23T20:30:42.497Z,99387.69
2023-01-23T20:33:11.571Z,99392.44
2023-01-23T20:35:40.698Z,99389.66
2023-01-23T20:38:09.781Z,99399.38
2023-01-23T20:40:39.229Z,99410.16
2023-01-23T20:43:08.910Z,99409.59
2023-01-23T20:45:45.594Z,99423.25
2023-01-23T20:48:19.234Z,99415.72
2023-01-23T20:50:54.947Z,99417.94
2023-01-23T20:53:30.554Z,99417.34
2023-01-23T20:56:02.085Z,99421.53
2023-01-23T20:58:49.321Z,99422.34
2023-01-23T21:01:20.673Z,99421.88
2023-01-23T21:03:54.342Z,99430.22
2023-01-23T21:06:24.017Z,99425.00
2023-01-23T21:08:53.764Z,99426.50
2023-01-23T21:11:24.093Z,99426.03
2023-01-23T21:13:54.886Z,99423.72
2023-01-23T21:16:24.351Z,99435.06
2023-01-23T21:18:55.107Z,99426.72
2023-01-23T21:21:24.903Z,99428.88
2023-01-23T21:23:54.460Z,99435.06
2023-01-23T21:26:26.923Z,99439.66
2023-01-23T21:28:58.646Z,99445.22
2023-01-23T21:31:32.936Z,99454.84
2023-01-23T21:34:06.247Z,99445.50
2023-01-23T21:36:36.855Z,99460.56
2023-01-23T21:39:22.417Z,99465.31
2023-01-23T21:41:53.147Z,99448.47
2023-01-23T21:44:24.558Z,99456.56
2023-01-23T21:46:59.455Z,99457.72
2023-01-23T21:49:31.357Z,99464.22
2023-01-23T21:52:00.748Z,99470.59
2023-01-23T21:54:29.949Z,99467.47
2023-01-23T21:57:00.734Z,99470.03
2023-01-23T21:59:29.879Z,99478.59
2023-01-23T22:01:57.986Z,99466.66
2023-01-23T22:04:27.101Z,99470.22
2023-01-23T22:06:59.314Z,99465.16
2023-01-23T22:09:28.398Z,99469.56
2023-01-23T22:11:57.445Z,99471.03
2023-01-23T22:14:26.527Z,99468.84
2023-01-23T22:16:55.660Z,99466.53
2023-01-23T22:19:25.915Z,99466.31
2023-01-23T22:21:55.941Z,99462.66
2023-01-23T22:24:26.650Z,99466.59
2023-01-23T22:26:55.798Z,99459.59
2023-01-23T22:29:24.846Z,99462.88
2023-01-23T22:31:54.117Z,99460.06
2023-01-23T22:34:23.302Z,99465.84
2023-01-23T22:36:52.818Z,99462.13
2023-01-23T22:39:22.057Z,99462.72
2023-01-23T22:41:52.661Z,99471.94
2023-01-23T22:44:21.785Z,99473.78
2023-01-23T22:46:51.922Z,99468.41
2023-01-23T22:49:21.086Z,99459.59
2023-01-23T22:51:51.584Z,99471.88
2023-01-23T22:54:20.881Z,99472.22
2023-01-23T22:56:50.088Z,99472.34
2023-01-23T22:59:23.520Z,99464.50
2023-01-23T23:01:52.626Z,99471.41
2023-01-23T23:04:22.376Z,99467.25
2023-01-23T23:06:53.912Z,99479.53
2023-01-23T23:09:23.217Z,99469.66
2023-01-23T23:11:52.892Z,99468.75
2023-01-23T23:14:23.473Z,99465.34
2023-01-23T23:16:52.590Z,99468.47
2023-01-23T23:19:21.753Z,99460.47
2023-01-23T23:21:51.372Z,99464.41
2023-01-23T23:24:24.837Z,99458.03
2023-01-23T23:26:54.164Z,99463.53
2023-01-23T23:29:24.833Z,99471.53
2023-01-23T23:31:54.553Z,99470.25
2023-01-23T23:34:23.718Z,99474.94
2023-01-23T23:36:52.801Z,99470.72
2023-01-23T23:39:22.065Z,99462.47
2023-01-23T23:41:51.114Z,99464.91
2023-01-23T23:44:21.362Z,99470.06
2023-01-23T23:46:52.015Z,99465.38
2023-01-23T23:49:22.070Z,99474.19
2023-01-23T23:51:51.200Z,99475.59
2023-01-23T23:54:20.523Z,99471.03
2023-01-23T23:56:49.661Z,99470.59
2023-01-23T23:59:19.210Z,99470.47
